Airfield :
LOGIN :

Register | Disclaimer

   EN    FR    IT 

 










Legend :    VFR   Marginal VFR   IFR   Intensive IFR   Very Intensive IFR
Visi :
Ceiling :
>= 8 km
>= 3000ft
5 to 8 km
1000 to 3000 ft
1500m to 5 km
500 to 1000 ft
800 to 1500m
200 to 500 ft
< 800m
< 200 ft
Symbols :   Thunderstorms  Fog  Heavy snow  Heavy precipitations  Wind > 20 kt
SIGMETs :     Misc.  Thunderstorms  Icing  Turbulence  Mountain Waves  Volcanic Ashes






- Airport Elevation : 72 ft
- IATA code : UDE


EHVK - Volkel Airbase

CURRENT METAR :
  • 301555Z AUTO 23013KT 170V270 9999 SCT034 BKN039 BKN044 22/14 Q1005 BLU

EXPIRED METARs :
  • 301525Z AUTO 24010KT 190V280 9999 FEW053 SCT065 BKN078 23/16 Q1005 BLU
  • 301456Z AUTO 24011KT 210V270 9999 SCT038 BKN042 BKN047 22/16 Q1005 BLU
  • 301455Z AUTO 23011KT 190V270 9999 FEW022CB SCT038 BKN043 BKN051 22/16 Q1005 BLU
  • 301436Z AUTO 22013KT 190V260 9999 FEW021CB BKN044 OVC049 21/16 Q1005 BLU
  • 301431Z AUTO 22013KT 170V250 9999 -RA FEW041 BKN046 BKN053 21/16 Q1005 BLU
  • 301425Z AUTO 20013KT 150V250 9999 RA FEW022CB BKN042 BKN046 OVC051 21/15 Q1005 BLU
  • 301355Z AUTO 19013KT 140V250 9999 SCT048 OVC053 24/14 Q1005 BLU
  • 301325Z AUTO 20016KT 150V240 9999 FEW047 BKN052 BKN075 23/13 Q1005 BLU NOSIG

TAF TAF EHVK
Valid from the 30 at 13:00 until the 31 at 01:00 UTC


301248Z 3013/3101 20012KT 9999 SCT030 BKN040
TEMPO 3013/3018 23014G25KT 4000 -SHRA SCT020 SCT030CB BKN035
BECMG 3023/3101 24013G25KT FEW016 BKN020
TEMPO 3100/3101 25015G30KT 4000 -SHRA FEW010 BKN014 SCT018CB



MET'MAP, your aeronautical weather chart ! - Copyright ORBIFLY December 2007 - Disclaimer

ORBIFLY MET'MAP TEAM :

Programming & Development : Alexandra Zaïnal
Concept & original design : Baudouin d'Aumeries
Assistance for programming : Marc-Olivier Méhu
Technical & hardware support : Manuel Goepfert

Contact : metmap@orbifly.com




SOURCES & CREDITS :

   NOAA